sensor_id;sensor_type;location;lat;lon;timestamp;pressure;altitude;pressure_sealevel;temperature;humidity
23574;BME280;11965;53.640;10.050;2023-02-23T00:01:49;101034.91;;;5.94;100.00
23574;BME280;11965;53.640;10.050;2023-02-23T00:04:16;101029.59;;;5.83;100.00
23574;BME280;11965;53.640;10.050;2023-02-23T00:06:45;101034.09;;;5.84;100.00
23574;BME280;11965;53.640;10.050;2023-02-23T00:09:12;101032.69;;;5.80;100.00
23574;BME280;11965;53.640;10.050;2023-02-23T00:11:47;101029.53;;;5.74;100.00
23574;BME280;11965;53.640;10.050;2023-02-23T00:14:14;101025.22;;;5.72;100.00
23574;BME280;11965;53.640;10.050;2023-02-23T00:16:41;101027.13;;;5.71;100.00
23574;BME280;11965;53.640;10.050;2023-02-23T00:19:10;101028.47;;;5.67;100.00
23574;BME280;11965;53.640;10.050;2023-02-23T00:21:40;101024.28;;;5.63;100.00
23574;BME280;11965;53.640;10.050;2023-02-23T00:24:11;101019.44;;;5.57;100.00
23574;BME280;11965;53.640;10.050;2023-02-23T00:26:40;101016.84;;;5.56;100.00
23574;BME280;11965;53.640;10.050;2023-02-23T00:29:11;101023.03;;;5.58;100.00
23574;BME280;11965;53.640;10.050;2023-02-23T00:31:41;101021.47;;;5.55;100.00
23574;BME280;11965;53.640;10.050;2023-02-23T00:34:10;101016.16;;;5.53;100.00
23574;BME280;11965;53.640;10.050;2023-02-23T00:36:37;101023.13;;;5.48;100.00
23574;BME280;11965;53.640;10.050;2023-02-23T00:39:07;101024.59;;;5.42;100.00
23574;BME280;11965;53.640;10.050;2023-02-23T00:41:43;101017.84;;;5.37;100.00
23574;BME280;11965;53.640;10.050;2023-02-23T00:44:11;101022.50;;;5.36;100.00
23574;BME280;11965;53.640;10.050;2023-02-23T00:46:41;101017.84;;;5.37;100.00
23574;BME280;11965;53.640;10.050;2023-02-23T00:49:10;101023.84;;;5.32;100.00
23574;BME280;11965;53.640;10.050;2023-02-23T00:51:38;101022.28;;;5.29;100.00
23574;BME280;11965;53.640;10.050;2023-02-23T00:54:06;101019.03;;;5.34;100.00
23574;BME280;11965;53.640;10.050;2023-02-23T00:56:33;101021.97;;;5.32;100.00
23574;BME280;11965;53.640;10.050;2023-02-23T00:59:01;101027.19;;;5.26;100.00
23574;BME280;11965;53.640;10.050;2023-02-23T01:01:28;101028.22;;;5.25;100.00
23574;BME280;11965;53.640;10.050;2023-02-23T01:03:55;101020.69;;;5.27;100.00
23574;BME280;11965;53.640;10.050;2023-02-23T01:06:23;101021.38;;;5.29;100.00
23574;BME280;11965;53.640;10.050;2023-02-23T01:08:51;101032.09;;;5.32;100.00
23574;BME280;11965;53.640;10.050;2023-02-23T01:11:23;101019.03;;;5.34;100.00
23574;BME280;11965;53.640;10.050;2023-02-23T01:13:54;101022.28;;;5.29;100.00
23574;BME280;11965;53.640;10.050;2023-02-23T01:16:24;101030.22;;;5.32;100.00
23574;BME280;11965;53.640;10.050;2023-02-23T01:18:53;101026.59;;;5.32;100.00
23574;BME280;11965;53.640;10.050;2023-02-23T01:21:22;101036.56;;;5.33;100.00
23574;BME280;11965;53.640;10.050;2023-02-23T01:23:51;101027.28;;;5.34;100.00
23574;BME280;11965;53.640;10.050;2023-02-23T01:26:20;101031.06;;;5.33;100.00
23574;BME280;11965;53.640;10.050;2023-02-23T01:28:49;101023.13;;;5.30;100.00
23574;BME280;11965;53.640;10.050;2023-02-23T01:31:17;101020.22;;;5.31;100.00
23574;BME280;11965;53.640;10.050;2023-02-23T01:33:45;101026.03;;;5.28;100.00
23574;BME280;11965;53.640;10.050;2023-02-23T01:36:12;101019.53;;;5.29;100.00
23574;BME280;11965;53.640;10.050;2023-02-23T01:38:39;101022.09;;;5.31;100.00
23574;BME280;11965;53.640;10.050;2023-02-23T01:41:06;101015.53;;;5.24;100.00
23574;BME280;11965;53.640;10.050;2023-02-23T01:43:33;101021.31;;;5.21;100.00
23574;BME280;11965;53.640;10.050;2023-02-23T01:46:02;101023.44;;;5.27;100.00
23574;BME280;11965;53.640;10.050;2023-02-23T01:48:33;101023.28;;;5.28;100.00
23574;BME280;11965;53.640;10.050;2023-02-23T01:51:07;101016.78;;;5.29;100.00
23574;BME280;11965;53.640;10.050;2023-02-23T01:53:42;101018.81;;;5.27;100.00
23574;BME280;11965;53.640;10.050;2023-02-23T01:56:15;101017.16;;;5.17;100.00
23574;BME280;11965;53.640;10.050;2023-02-23T01:58:46;101003.72;;;5.14;100.00
23574;BME280;11965;53.640;10.050;2023-02-23T02:01:17;101007.75;;;5.19;100.00
23574;BME280;11965;53.640;10.050;2023-02-23T02:03:51;101007.34;;;5.32;100.00
23574;BME280;11965;53.640;10.050;2023-02-23T02:06:24;101009.28;;;5.40;100.00
23574;BME280;11965;53.640;10.050;2023-02-23T02:08:56;101009.16;;;5.41;100.00
23574;BME280;11965;53.640;10.050;2023-02-23T02:11:25;101010.41;;;5.47;100.00
23574;BME280;11965;53.640;10.050;2023-02-23T02:14:00;101008.84;;;5.44;100.00
23574;BME280;11965;53.640;10.050;2023-02-23T02:16:45;101007.03;;;5.35;100.00
23574;BME280;11965;53.640;10.050;2023-02-23T02:22:45;101002.09;;;5.39;100.00
23574;BME280;11965;53.640;10.050;2023-02-23T02:25:38;101012.03;;;5.40;100.00
23574;BME280;11965;53.640;10.050;2023-02-23T02:28:28;100999.19;;;5.40;100.00
23574;BME280;11965;53.640;10.050;2023-02-23T02:31:38;101004.38;;;5.43;100.00
23574;BME280;11965;53.640;10.050;2023-02-23T02:34:36;101008.91;;;5.35;100.00
23574;BME280;11965;53.640;10.050;2023-02-23T02:37:35;101013.06;;;5.39;100.00
23574;BME280;11965;53.640;10.050;2023-02-23T02:40:10;101007.97;;;5.44;100.00
23574;BME280;11965;53.640;10.050;2023-02-23T02:42:58;101003.25;;;5.36;100.00
23574;BME280;11965;53.640;10.050;2023-02-23T02:45:36;101007.59;;;5.39;100.00
23574;BME280;11965;53.640;10.050;2023-02-23T02:48:16;100997.84;;;5.44;100.00
23574;BME280;11965;53.640;10.050;2023-02-23T02:50:49;101002.16;;;5.47;100.00
23574;BME280;11965;53.640;10.050;2023-02-23T02:53:27;101005.16;;;5.53;100.00
23574;BME280;11965;53.640;10.050;2023-02-23T02:56:01;101001.59;;;5.61;100.00
23574;BME280;11965;53.640;10.050;2023-02-23T02:58:32;101009.69;;;5.63;100.00
23574;BME280;11965;53.640;10.050;2023-02-23T03:01:07;100999.09;;;5.68;100.00
23574;BME280;11965;53.640;10.050;2023-02-23T03:03:53;100996.78;;;5.81;100.00
23574;BME280;11965;53.640;10.050;2023-02-23T03:06:44;100996.31;;;5.86;100.00
23574;BME280;11965;53.640;10.050;2023-02-23T03:09:38;100999.59;;;5.89;100.00
23574;BME280;11965;53.640;10.050;2023-02-23T03:12:32;100995.38;;;5.95;100.00
23574;BME280;11965;53.640;10.050;2023-02-23T03:15:37;100998.31;;;6.02;100.00
23574;BME280;11965;53.640;10.050;2023-02-23T03:18:42;101003.19;;;6.08;100.00
23574;BME280;11965;53.640;10.050;2023-02-23T03:21:38;100999.47;;;6.17;100.00
23574;BME280;11965;53.640;10.050;2023-02-23T03:24:37;100999.78;;;6.14;100.00
23574;BME280;11965;53.640;10.050;2023-02-23T03:27:30;101001.06;;;6.28;100.00
23574;BME280;11965;53.640;10.050;2023-02-23T03:30:25;100997.94;;;6.23;100.00
23574;BME280;11965;53.640;10.050;2023-02-23T03:33:18;100991.09;;;6.27;100.00
23574;BME280;11965;53.640;10.050;2023-02-23T03:36:11;100998.22;;;6.37;100.00
23574;BME280;11965;53.640;10.050;2023-02-23T03:39:04;100992.75;;;6.46;100.00
23574;BME280;11965;53.640;10.050;2023-02-23T03:41:55;100990.16;;;6.44;100.00
23574;BME280;11965;53.640;10.050;2023-02-23T03:44:45;100992.72;;;6.37;100.00
23574;BME280;11965;53.640;10.050;2023-02-23T03:47:37;100987.41;;;6.44;100.00
23574;BME280;11965;53.640;10.050;2023-02-23T03:50:30;100991.56;;;6.48;100.00
23574;BME280;11965;53.640;10.050;2023-02-23T03:53:23;100988.63;;;6.50;100.00
23574;BME280;11965;53.640;10.050;2023-02-23T03:56:11;100990.19;;;6.52;100.00
23574;BME280;11965;53.640;10.050;2023-02-23T03:59:03;100987.78;;;6.49;100.00
23574;BME280;11965;53.640;10.050;2023-02-23T04:01:53;100989.69;;;6.57;100.00
23574;BME280;11965;53.640;10.050;2023-02-23T04:04:40;100989.38;;;6.60;100.00
23574;BME280;11965;53.640;10.050;2023-02-23T04:07:25;100997.63;;;6.60;100.00
23574;BME280;11965;53.640;10.050;2023-02-23T04:10:10;100994.16;;;6.58;100.00
23574;BME280;11965;53.640;10.050;2023-02-23T04:13:02;100986.25;;;6.55;100.00
23574;BME280;11965;53.640;10.050;2023-02-23T04:15:47;100990.91;;;6.54;100.00
23574;BME280;11965;53.640;10.050;2023-02-23T04:18:16;100991.41;;;6.58;100.00
23574;BME280;11965;53.640;10.050;2023-02-23T04:20:43;100994.34;;;6.56;100.00
23574;BME280;11965;53.640;10.050;2023-02-23T04:23:10;100991.25;;;6.59;100.00
23574;BME280;11965;53.640;10.050;2023-02-23T04:25:37;100992.16;;;6.68;100.00
23574;BME280;11965;53.640;10.050;2023-02-23T04:28:04;101004.91;;;6.69;100.00
23574;BME280;11965;53.640;10.050;2023-02-23T04:30:31;100992.50;;;6.65;100.00
23574;BME280;11965;53.640;10.050;2023-02-23T04:33:00;100996.28;;;6.64;100.00
23574;BME280;11965;53.640;10.050;2023-02-23T04:35:27;101004.03;;;6.69;100.00
23574;BME280;11965;53.640;10.050;2023-02-23T04:37:56;100999.94;;;6.73;100.00
23574;BME280;11965;53.640;10.050;2023-02-23T04:40:23;101007.84;;;6.76;100.00
23574;BME280;11965;53.640;10.050;2023-02-23T04:42:50;101000.63;;;6.75;100.00
23574;BME280;11965;53.640;10.050;2023-02-23T04:45:18;100993.75;;;6.79;100.00
23574;BME280;11965;53.640;10.050;2023-02-23T04:47:45;101000.47;;;6.84;100.00
23574;BME280;11965;53.640;10.050;2023-02-23T04:50:13;100989.81;;;6.81;100.00
23574;BME280;11965;53.640;10.050;2023-02-23T04:52:40;100984.13;;;6.83;100.00
23574;BME280;11965;53.640;10.050;2023-02-23T04:55:15;100989.31;;;6.86;100.00
23574;BME280;11965;53.640;10.050;2023-02-23T04:57:42;100986.88;;;6.83;100.00
23574;BME280;11965;53.640;10.050;2023-02-23T05:00:10;100992.72;;;6.72;100.00
23574;BME280;11965;53.640;10.050;2023-02-23T05:02:37;100989.59;;;6.67;100.00
23574;BME280;11965;53.640;10.050;2023-02-23T05:05:04;100990.47;;;6.75;100.00
23574;BME280;11965;53.640;10.050;2023-02-23T05:07:33;100984.28;;;6.81;100.00
23574;BME280;11965;53.640;10.050;2023-02-23T05:09:59;100991.88;;;6.88;100.00
23574;BME280;11965;53.640;10.050;2023-02-23T05:12:26;101002.38;;;6.84;100.00
23574;BME280;11965;53.640;10.050;2023-02-23T05:14:53;100992.41;;;6.83;100.00
23574;BME280;11965;53.640;10.050;2023-02-23T05:17:20;100989.31;;;6.86;100.00
23574;BME280;11965;53.640;10.050;2023-02-23T05:19:47;100990.16;;;6.86;100.00
23574;BME280;11965;53.640;10.050;2023-02-23T05:22:14;100989.66;;;6.83;100.00
23574;BME280;11965;53.640;10.050;2023-02-23T05:24:42;100997.09;;;6.91;100.00
23574;BME280;11965;53.640;10.050;2023-02-23T05:27:10;100991.03;;;6.95;100.00
23574;BME280;11965;53.640;10.050;2023-02-23T05:29:38;100995.72;;;7.03;100.00
23574;BME280;11965;53.640;10.050;2023-02-23T05:32:05;101002.09;;;7.03;100.00
23574;BME280;11965;53.640;10.050;2023-02-23T05:34:32;101004.50;;;7.06;100.00
23574;BME280;11965;53.640;10.050;2023-02-23T05:36:59;100999.66;;;7.00;100.00
23574;BME280;11965;53.640;10.050;2023-02-23T05:39:26;100996.91;;;7.00;100.00
23574;BME280;11965;53.640;10.050;2023-02-23T05:41:54;100987.63;;;6.93;100.00
23574;BME280;11965;53.640;10.050;2023-02-23T05:44:21;100982.78;;;6.95;100.00
23574;BME280;11965;53.640;10.050;2023-02-23T05:46:48;100990.88;;;6.97;100.00
23574;BME280;11965;53.640;10.050;2023-02-23T05:49:15;100988.50;;;7.02;100.00
23574;BME280;11965;53.640;10.050;2023-02-23T05:51:42;100994.72;;;7.04;100.00
23574;BME280;11965;53.640;10.050;2023-02-23T05:54:09;100992.09;;;7.02;100.00
23574;BME280;11965;53.640;10.050;2023-02-23T05:56:36;100988.50;;;7.02;100.00
23574;BME280;11965;53.640;10.050;2023-02-23T05:59:04;100990.56;;;7.00;100.00
23574;BME280;11965;53.640;10.050;2023-02-23T06:01:31;100998.66;;;7.01;100.00
23574;BME280;11965;53.640;10.050;2023-02-23T06:03:58;100999.19;;;7.05;100.00
23574;BME280;11965;53.640;10.050;2023-02-23T06:06:25;101001.22;;;7.03;100.00
23574;BME280;11965;53.640;10.050;2023-02-23T06:08:53;101011.41;;;7.02;100.00
23574;BME280;11965;53.640;10.050;2023-02-23T06:11:20;101010.56;;;7.10;100.00
23574;BME280;11965;53.640;10.050;2023-02-23T06:13:48;101007.31;;;7.15;100.00
23574;BME280;11965;53.640;10.050;2023-02-23T06:16:16;101010.94;;;7.15;100.00
23574;BME280;11965;53.640;10.050;2023-02-23T06:18:43;101008.84;;;7.17;100.00
23574;BME280;11965;53.640;10.050;2023-02-23T06:21:09;101008.69;;;7.19;100.00
23574;BME280;11965;53.640;10.050;2023-02-23T06:23:36;101006.28;;;7.24;100.00
23574;BME280;11965;53.640;10.050;2023-02-23T06:26:04;101012.13;;;7.21;100.00
23574;BME280;11965;53.640;10.050;2023-02-23T06:28:31;101024.38;;;7.26;100.00
23574;BME280;11965;53.640;10.050;2023-02-23T06:30:57;101020.25;;;7.39;100.00
23574;BME280;11965;53.640;10.050;2023-02-23T06:33:26;101028.19;;;7.34;100.00
23574;BME280;11965;53.640;10.050;2023-02-23T06:35:53;101026.97;;;7.28;100.00
23574;BME280;11965;53.640;10.050;2023-02-23T06:38:21;101034.72;;;7.33;100.00
23574;BME280;11965;53.640;10.050;2023-02-23T06:40:48;101031.13;;;7.32;100.00
23574;BME280;11965;53.640;10.050;2023-02-23T06:43:15;101035.09;;;7.38;100.00
23574;BME280;11965;53.640;10.050;2023-02-23T06:45:42;101043.19;;;7.39;100.00
23574;BME280;11965;53.640;10.050;2023-02-23T06:48:09;101035.59;;;7.41;100.00
23574;BME280;11965;53.640;10.050;2023-02-23T06:50:37;101038.69;;;7.38;100.00
23574;BME280;11965;53.640;10.050;2023-02-23T06:53:04;101036.28;;;7.35;100.00
23574;BME280;11965;53.640;10.050;2023-02-23T06:55:31;101040.59;;;7.38;100.00
23574;BME280;11965;53.640;10.050;2023-02-23T06:57:58;101048.88;;;7.38;100.00
23574;BME280;11965;53.640;10.050;2023-02-23T07:00:25;101045.13;;;7.47;100.00
23574;BME280;11965;53.640;10.050;2023-02-23T07:02:52;101047.34;;;7.51;100.00
23574;BME280;11965;53.640;10.050;2023-02-23T07:05:18;101051.50;;;7.47;100.00
23574;BME280;11965;53.640;10.050;2023-02-23T07:07:47;101055.25;;;7.46;100.00
23574;BME280;11965;53.640;10.050;2023-02-23T07:10:14;101050.44;;;7.48;100.00
23574;BME280;11965;53.640;10.050;2023-02-23T07:12:41;101054.59;;;7.52;100.00
23574;BME280;11965;53.640;10.050;2023-02-23T07:15:09;101068.41;;;7.52;100.00
23574;BME280;11965;53.640;10.050;2023-02-23T07:17:36;101068.22;;;7.62;100.00
23574;BME280;11965;53.640;10.050;2023-02-23T07:20:04;101067.88;;;7.57;100.00
23574;BME280;11965;53.640;10.050;2023-02-23T07:22:31;101078.41;;;7.62;100.00
23574;BME280;11965;53.640;10.050;2023-02-23T07:25:00;101072.19;;;7.68;100.00
23574;BME280;11965;53.640;10.050;2023-02-23T07:27:29;101071.00;;;7.79;100.00
23574;BME280;11965;53.640;10.050;2023-02-23T07:29:55;101075.84;;;7.77;100.00
23574;BME280;11965;53.640;10.050;2023-02-23T07:32:22;101081.03;;;7.96;100.00
23574;BME280;11965;53.640;10.050;2023-02-23T07:34:49;101079.63;;;8.00;100.00
23574;BME280;11965;53.640;10.050;2023-02-23T07:37:16;101075.00;;;8.01;100.00
23574;BME280;11965;53.640;10.050;2023-02-23T07:39:43;101076.88;;;7.92;100.00
23574;BME280;11965;53.640;10.050;2023-02-23T07:42:11;101077.72;;;7.92;100.00
23574;BME280;11965;53.640;10.050;2023-02-23T07:44:38;101086.53;;;7.80;100.00
23574;BME280;11965;53.640;10.050;2023-02-23T07:47:07;101083.94;;;7.70;100.00
23574;BME280;11965;53.640;10.050;2023-02-23T07:49:34;101090.84;;;7.74;100.00
23574;BME280;11965;53.640;10.050;2023-02-23T07:52:01;101089.09;;;7.81;100.00
23574;BME280;11965;53.640;10.050;2023-02-23T07:54:28;101089.66;;;7.85;100.00
23574;BME280;11965;53.640;10.050;2023-02-23T07:56:55;101093.09;;;7.87;100.00
23574;BME280;11965;53.640;10.050;2023-02-23T07:59:23;101104.31;;;7.77;100.00
23574;BME280;11965;53.640;10.050;2023-02-23T08:01:50;101100.69;;;7.77;100.00
23574;BME280;11965;53.640;10.050;2023-02-23T08:04:17;101104.81;;;7.81;100.00
23574;BME280;11965;53.640;10.050;2023-02-23T08:06:44;101106.38;;;7.83;100.00
23574;BME280;11965;53.640;10.050;2023-02-23T08:09:11;101101.88;;;7.74;100.00
23574;BME280;11965;53.640;10.050;2023-02-23T08:11:38;101108.75;;;7.70;100.00
23574;BME280;11965;53.640;10.050;2023-02-23T08:14:05;101109.81;;;7.69;100.00
23574;BME280;11965;53.640;10.050;2023-02-23T08:16:33;101108.28;;;7.83;100.00
23574;BME280;11965;53.640;10.050;2023-02-23T08:19:00;101107.41;;;7.82;100.00
23574;BME280;11965;53.640;10.050;2023-02-23T08:21:29;101113.94;;;7.81;100.00
23574;BME280;11965;53.640;10.050;2023-02-23T08:23:56;101119.28;;;7.74;100.00
23574;BME280;11965;53.640;10.050;2023-02-23T08:26:23;101104.97;;;7.71;100.00
23574;BME280;11965;53.640;10.050;2023-02-23T08:28:51;101120.50;;;7.72;100.00
23574;BME280;11965;53.640;10.050;2023-02-23T08:31:17;101110.81;;;7.68;100.00
23574;BME280;11965;53.640;10.050;2023-02-23T08:33:49;101106.13;;;7.60;100.00
23574;BME280;11965;53.640;10.050;2023-02-23T08:36:16;101114.94;;;7.56;100.00
23574;BME280;11965;53.640;10.050;2023-02-23T08:38:45;101118.44;;;7.66;100.00
23574;BME280;11965;53.640;10.050;2023-02-23T08:41:13;101118.09;;;7.77;100.00
23574;BME280;11965;53.640;10.050;2023-02-23T08:43:39;101119.28;;;7.66;100.00
23574;BME280;11965;53.640;10.050;2023-02-23T08:46:06;101113.06;;;7.64;100.00
23574;BME280;11965;53.640;10.050;2023-02-23T08:48:34;101114.97;;;7.72;100.00
23574;BME280;11965;53.640;10.050;2023-02-23T08:51:05;101119.66;;;7.80;100.00
23574;BME280;11965;53.640;10.050;2023-02-23T08:53:32;101118.97;;;7.86;100.00
23574;BME280;11965;53.640;10.050;2023-02-23T08:56:02;101114.50;;;7.85;100.00
23574;BME280;11965;53.640;10.050;2023-02-23T08:58:29;101114.28;;;7.78;100.00
23574;BME280;11965;53.640;10.050;2023-02-23T09:00:57;101118.09;;;7.77;100.00
23574;BME280;11965;53.640;10.050;2023-02-23T09:03:25;101108.97;;;7.93;100.00
23574;BME280;11965;53.640;10.050;2023-02-23T09:05:53;101118.63;;;7.89;100.00
23574;BME280;11965;53.640;10.050;2023-02-23T09:08:21;101113.28;;;8.04;100.00
23574;BME280;11965;53.640;10.050;2023-02-23T09:10:48;101107.59;;;8.13;100.00
23574;BME280;11965;53.640;10.050;2023-02-23T09:13:15;101117.41;;;8.00;100.00
23574;BME280;11965;53.640;10.050;2023-02-23T09:15:42;101109.84;;;8.02;100.00
23574;BME280;11965;53.640;10.050;2023-02-23T09:18:11;101112.09;;;7.98;100.00
23574;BME280;11965;53.640;10.050;2023-02-23T09:20:40;101113.78;;;7.91;100.00
23574;BME280;11965;53.640;10.050;2023-02-23T09:23:07;101114.31;;;8.03;100.00
23574;BME280;11965;53.640;10.050;2023-02-23T09:25:39;101107.44;;;7.99;100.00
23574;BME280;11965;53.640;10.050;2023-02-23T09:28:10;101108.97;;;7.93;100.00
23574;BME280;11965;53.640;10.050;2023-02-23T09:30:40;101118.44;;;7.82;100.00
23574;BME280;11965;53.640;10.050;2023-02-23T09:33:08;101119.47;;;7.89;100.00
23574;BME280;11965;53.640;10.050;2023-02-23T09:35:36;101122.75;;;7.77;100.00
23574;BME280;11965;53.640;10.050;2023-02-23T09:38:05;101119.28;;;7.74;100.00
23574;BME280;11965;53.640;10.050;2023-02-23T09:40:43;101127.75;;;7.81;100.00
23574;BME280;11965;53.640;10.050;2023-02-23T09:43:14;101114.13;;;7.71;100.00
23574;BME280;11965;53.640;10.050;2023-02-23T09:45:50;101124.63;;;7.84;100.00
23574;BME280;11965;53.640;10.050;2023-02-23T09:48:21;101126.69;;;7.58;100.00
23574;BME280;11965;53.640;10.050;2023-02-23T09:50:51;101135.44;;;7.53;100.00
23574;BME280;11965;53.640;10.050;2023-02-23T09:53:37;101130.28;;;7.50;100.00
23574;BME280;11965;53.640;10.050;2023-02-23T09:56:13;101134.19;;;7.39;100.00
23574;BME280;11965;53.640;10.050;2023-02-23T09:58:43;101142.75;;;7.28;100.00
23574;BME280;11965;53.640;10.050;2023-02-23T10:01:29;101144.03;;;7.42;100.00
23574;BME280;11965;53.640;10.050;2023-02-23T10:04:09;101153.56;;;7.56;100.00
23574;BME280;11965;53.640;10.050;2023-02-23T10:06:42;101142.38;;;7.65;100.00
23574;BME280;11965;53.640;10.050;2023-02-23T10:09:21;101146.53;;;7.78;100.00
23574;BME280;11965;53.640;10.050;2023-02-23T10:11:58;101138.59;;;7.74;100.00
23574;BME280;11965;53.640;10.050;2023-02-23T10:14:46;101134.66;;;7.85;100.00
23574;BME280;11965;53.640;10.050;2023-02-23T10:17:28;101134.28;;;7.72;100.00
23574;BME280;11965;53.640;10.050;2023-02-23T10:20:11;101145.00;;;7.75;100.00
23574;BME280;11965;53.640;10.050;2023-02-23T10:22:39;101151.16;;;7.52;100.00
23574;BME280;11965;53.640;10.050;2023-02-23T10:25:11;101151.78;;;7.46;100.00
23574;BME280;11965;53.640;10.050;2023-02-23T10:27:44;101149.41;;;7.60;100.00
23574;BME280;11965;53.640;10.050;2023-02-23T10:30:18;101145.41;;;7.46;100.00
23574;BME280;11965;53.640;10.050;2023-02-23T10:32:52;101150.78;;;7.47;100.00
23574;BME280;11965;53.640;10.050;2023-02-23T10:35:22;101150.81;;;7.64;100.00
23574;BME280;11965;53.640;10.050;2023-02-23T10:37:51;101144.25;;;7.65;100.00
23574;BME280;11965;53.640;10.050;2023-02-23T10:40:20;101154.03;;;7.43;100.00
23574;BME280;11965;53.640;10.050;2023-02-23T10:42:50;101153.31;;;7.41;100.00
23574;BME280;11965;53.640;10.050;2023-02-23T10:45:20;101153.03;;;7.60;100.00
23574;BME280;11965;53.640;10.050;2023-02-23T10:47:56;101160.13;;;7.71;100.00
23574;BME280;11965;53.640;10.050;2023-02-23T10:50:24;101160.09;;;7.55;100.00
23574;BME280;11965;53.640;10.050;2023-02-23T10:52:57;101162.84;;;7.55;100.00
23574;BME280;11965;53.640;10.050;2023-02-23T10:55:27;101152.31;;;7.42;100.00
23574;BME280;11965;53.640;10.050;2023-02-23T10:58:06;101163.88;;;7.45;100.00
23574;BME280;11965;53.640;10.050;2023-02-23T11:00:36;101158.22;;;7.55;100.00
23574;BME280;11965;53.640;10.050;2023-02-23T11:03:17;101158.34;;;7.45;100.00
23574;BME280;11965;53.640;10.050;2023-02-23T11:05:47;101159.09;;;7.64;100.00
23574;BME280;11965;53.640;10.050;2023-02-23T11:08:24;101150.00;;;7.80;100.00
23574;BME280;11965;53.640;10.050;2023-02-23T11:10:58;101155.06;;;8.25;100.00
23574;BME280;11965;53.640;10.050;2023-02-23T11:13:33;101151.94;;;8.20;100.00
23574;BME280;11965;53.640;10.050;2023-02-23T11:16:04;101149.34;;;8.27;100.00
23574;BME280;11965;53.640;10.050;2023-02-23T11:18:35;101139.00;;;8.21;100.00
23574;BME280;11965;53.640;10.050;2023-02-23T11:21:09;101143.81;;;8.10;100.00
23574;BME280;11965;53.640;10.050;2023-02-23T11:23:40;101140.38;;;8.16;100.00
23574;BME280;11965;53.640;10.050;2023-02-23T11:26:27;101133.13;;;8.32;100.00
23574;BME280;11965;53.640;10.050;2023-02-23T11:28:59;101139.88;;;8.46;100.00
23574;BME280;11965;53.640;10.050;2023-02-23T11:31:33;101139.03;;;8.53;100.00
23574;BME280;11965;53.640;10.050;2023-02-23T11:34:02;101136.09;;;8.30;100.00
23574;BME280;11965;53.640;10.050;2023-02-23T11:36:32;101137.44;;;8.26;100.00
23574;BME280;11965;53.640;10.050;2023-02-23T11:39:05;101137.66;;;8.41;100.00
23574;BME280;11965;53.640;10.050;2023-02-23T11:41:34;101139.50;;;8.32;100.00
23574;BME280;11965;53.640;10.050;2023-02-23T11:44:03;101135.75;;;8.33;100.00
23574;BME280;11965;53.640;10.050;2023-02-23T11:46:34;101134.53;;;8.19;100.00
23574;BME280;11965;53.640;10.050;2023-02-23T11:49:06;101129.00;;;8.36;100.00
23574;BME280;11965;53.640;10.050;2023-02-23T11:51:35;101133.84;;;8.42;100.00
23574;BME280;11965;53.640;10.050;2023-02-23T11:54:06;101132.13;;;8.66;100.00
23574;BME280;11965;53.640;10.050;2023-02-23T11:56:35;101135.41;;;8.45;100.00
23574;BME280;11965;53.640;10.050;2023-02-23T11:59:06;101131.09;;;8.50;100.00
23574;BME280;11965;53.640;10.050;2023-02-23T12:01:43;101127.97;;;8.61;100.00
23574;BME280;11965;53.640;10.050;2023-02-23T12:04:24;101122.47;;;8.45;100.00
23574;BME280;11965;53.640;10.050;2023-02-23T12:07:20;101128.66;;;8.55;100.00
23574;BME280;11965;53.640;10.050;2023-02-23T12:09:58;101127.59;;;8.32;100.00
23574;BME280;11965;53.640;10.050;2023-02-23T12:12:28;101110.69;;;8.35;100.00
23574;BME280;11965;53.640;10.050;2023-02-23T12:15:05;101123.63;;;8.34;100.00
23574;BME280;11965;53.640;10.050;2023-02-23T12:17:44;101124.50;;;8.35;100.00
23574;BME280;11965;53.640;10.050;2023-02-23T12:20:20;101126.41;;;8.59;100.00
23574;BME280;11965;53.640;10.050;2023-02-23T12:22:53;101120.53;;;8.62;100.00
23574;BME280;11965;53.640;10.050;2023-02-23T12:25:29;101130.16;;;8.82;100.00
23574;BME280;11965;53.640;10.050;2023-02-23T12:28:03;101125.28;;;9.01;100.00
23574;BME280;11965;53.640;10.050;2023-02-23T12:30:43;101129.63;;;8.95;100.00
23574;BME280;11965;53.640;10.050;2023-02-23T12:33:17;101129.50;;;8.64;100.00
23574;BME280;11965;53.640;10.050;2023-02-23T12:35:52;101128.66;;;8.55;100.00
23574;BME280;11965;53.640;10.050;2023-02-23T12:38:27;101132.97;;;8.66;100.00
23574;BME280;11965;53.640;10.050;2023-02-23T12:41:02;101128.81;;;8.54;100.00
23574;BME280;11965;53.640;10.050;2023-02-23T12:43:38;101127.81;;;8.47;100.00
23574;BME280;11965;53.640;10.050;2023-02-23T12:46:13;101125.34;;;8.27;100.00
23574;BME280;11965;53.640;10.050;2023-02-23T12:48:51;101124.00;;;8.23;100.00
23574;BME280;11965;53.640;10.050;2023-02-23T12:51:30;101124.34;;;8.28;100.00
23574;BME280;11965;53.640;10.050;2023-02-23T12:53:59;101130.03;;;8.43;100.00
23574;BME280;11965;53.640;10.050;2023-02-23T12:56:43;101120.03;;;8.42;100.00
23574;BME280;11965;53.640;10.050;2023-02-23T12:59:21;101126.44;;;8.43;100.00
23574;BME280;11965;53.640;10.050;2023-02-23T13:01:58;101122.47;;;8.45;100.00
23574;BME280;11965;53.640;10.050;2023-02-23T13:04:58;101117.25;;;8.34;100.00
23574;BME280;11965;53.640;10.050;2023-02-23T13:07:37;101116.75;;;8.30;100.00
23574;BME280;11965;53.640;10.050;2023-02-23T13:10:20;101111.53;;;8.35;100.00
23574;BME280;11965;53.640;10.050;2023-02-23T13:12:56;101111.22;;;8.38;100.00